Latest Weather Observations for High Range (Wanganderry)

IDN60801

Issued at 6:23 pm EST Saturday 9 May 2026 (issued every 10 minutes, with the page automatically refreshed every 10 minutes)

About weather observations | Map of weather stations | Latest weather observations for NSW | Other Formats
Station Details ID: 068262 Name: HIGH RANGE AWS (WANGANDERRY) Lat: -34.33 Lon: 150.27 Height: 813.6 m
Data from the previous 72 hours. | See also: Recent months for locations in New South Wales
Date/Time
EST
Temp
°C
App
Temp
°C
Dew
Point
°C
Rel
Hum
%
Delta-T
°C
Wind Press
QNH
hPa
Press
MSL
hPa
Rain since
9am
mm
Dir  Spd
km/h
Gust
km/h
Spd
kts
Gust
kts
09/06:00pm 12.7 10.8 5.1 60 3.7 S 4 9 2 5 1025.6 1025.2 0.0
09/05:30pm 13.0 10.9 5.7 61 3.6 S 6 7 3 4 1025.3 1024.8 0.0
09/05:00pm 14.6 13.5 5.1 53 4.6 CALM 0 0 0 0 1025.0 1024.5 0.0
09/04:30pm 15.0 14.0 5.5 53 4.7 CALM 0 0 0 0 1024.6 1024.2 0.0
09/04:00pm 15.3 13.3 6.1 54 4.6 S 6 7 3 4 1024.4 1023.9 0.0
09/03:30pm 16.1 14.0 5.7 50 5.2 SW 6 9 3 5 1024.2 1023.7 0.0
09/03:00pm 16.0 12.8 5.3 49 5.3 SW 11 15 6 8 1024.1 1023.6 0.0
09/02:30pm 16.0 13.2 5.3 49 5.3 SSW 9 13 5 7 1024.1 1023.6 0.0
09/02:00pm 15.6 12.4 5.2 50 5.1 SSW 11 17 6 9 1024.0 1023.5 0.0
09/01:30pm 15.4 13.2 5.3 51 5.0 SW 6 9 3 5 1024.3 1023.8 0.0
09/01:00pm 15.2 12.8 5.4 52 4.8 SW 7 13 4 7 1024.4 1023.9 0.0
09/12:30pm 15.1 12.9 6.4 56 4.4 S 7 17 4 9 1024.7 1024.3 0.0
09/12:00pm 13.9 10.8 5.5 57 4.1 SW 11 17 6 9 1025.2 1024.7 0.0
09/11:30am 13.3 9.7 5.2 58 4.0 SSW 13 20 7 11 1025.5 1025.0 0.0
09/11:00am 13.3 10.7 5.9 61 3.6 S 9 13 5 7 1025.7 1025.3 0.0
09/10:30am 13.0 10.4 6.1 63 3.4 S 9 13 5 7 1025.7 1025.3 0.0
09/10:00am 11.9 9.8 6.8 71 2.5 WSW 7 11 4 6 1025.7 1025.3 0.0
09/09:30am 10.6 8.0 6.0 73 2.2 SW 9 15 5 8 1025.7 1025.3 0.0
09/09:00am 9.9 7.0 6.3 78 1.7 SW 11 15 6 8 1025.7 1025.3 0.0
09/08:30am 9.1 5.8 6.4 83 1.3 SW 13 17 7 9 1025.4 1024.9 0.0
09/08:00am 8.4 5.4 5.9 84 1.2 WSW 11 17 6 9 1025.1 1024.6 0.0
09/07:30am 7.4 3.9 5.5 88 0.9 W 13 17 7 9 1024.8 1024.4 0.0
09/07:00am 6.8 2.1 5.3 90 0.7 W 19 22 10 12 1024.4 1023.9 0.0
09/06:30am 6.5 1.6 5.0 90 0.7 W 20 24 11 13 1024.1 1023.6 0.0
09/06:00am 6.7 2.0 5.2 90 0.7 W 19 24 10 13 1023.9 1023.4 0.0
09/05:30am 6.9 2.1 5.4 90 0.7 W 20 22 11 12 1023.3 1022.8 0.0
09/05:00am 6.8 2.2 5.4 91 0.6 W 19 22 10 12 1023.1 1022.6 0.0
09/04:30am 6.5 1.8 5.3 92 0.6 W 19 20 10 11 1023.0 1022.5 0.0
09/04:00am 6.7 1.8 5.2 90 0.7 W 20 24 11 13 1022.9 1022.4 0.0
09/03:30am 6.9 2.1 5.5 91 0.7 W 20 24 11 13 1022.9 1022.4 0.0
09/03:00am 7.0 2.4 5.6 91 0.7 W 19 24 10 13 1022.9 1022.4 0.0
09/02:30am 6.9 2.3 5.4 90 0.7 WSW 19 24 10 13 1023.0 1022.5 0.0
09/02:00am 7.1 2.5 5.6 90 0.7 W 19 24 10 13 1022.8 1022.3 0.0
09/01:30am 7.2 2.4 5.8 91 0.7 W 20 24 11 13 1022.9 1022.4 0.0
09/01:00am 7.0 2.8 5.6 91 0.7 W 17 24 9 13 1023.0 1022.5 0.0
09/12:30am 6.8 2.2 5.4 91 0.7 WSW 19 22 10 12 1022.9 1022.4 0.0
09/12:00am 7.2 2.6 5.7 90 0.7 WSW 19 24 10 13 1022.7 1022.2 0.0
 
Date/Time
EST
Temp
°C
App
Temp
°C
Dew
Point
°C
Rel
Hum
%
Delta-T
°C
Wind Press
QNH
hPa
Press
MSL
hPa
Rain since
9am
mm
Dir  Spd
km/h
Gust
km/h
Spd
kts
Gust
kts
08/11:30pm 7.0 2.8 5.6 91 0.7 WSW 17 22 9 12 1022.7 1022.2 0.0
08/11:00pm 6.8 2.5 5.3 90 0.7 SW 17 22 9 12 1022.6 1022.1 0.0
08/10:30pm 7.1 2.4 5.1 87 0.9 SW 19 24 10 13 1022.7 1022.2 0.0
08/10:00pm 7.6 2.7 5.1 84 1.2 WSW 20 28 11 15 1022.6 1022.1 0.0
08/09:30pm 7.7 2.8 5.0 83 1.3 WSW 20 26 11 14 1022.6 1022.1 0.0
08/09:00pm 7.8 3.0 4.9 82 1.3 WSW 19 24 10 13 1022.5 1022.0 0.0
08/08:30pm 7.7 2.4 4.8 82 1.3 SW 22 28 12 15 1022.0 1021.5 0.0
08/08:00pm 8.0 2.7 4.9 81 1.4 WSW 22 28 12 15 1021.8 1021.3 0.0
08/07:30pm 8.3 2.2 4.9 79 1.6 WSW 26 39 14 21 1021.5 1021.0 0.0
08/07:00pm 8.6 2.5 5.0 78 1.7 W 26 43 14 23 1021.1 1020.5 0.0
08/06:30pm 8.3 1.1 4.9 79 1.6 WSW 32 43 17 23 1020.5 1020.0 0.0
08/06:17pm 8.4 2.0 5.0 79 1.6 W 28 46 15 25 1020.5 1020.0 0.0
08/06:00pm 8.3 1.9 5.1 80 1.5 WSW 28 41 15 22 1020.2 1019.6 0.0
08/05:30pm 8.7 1.3 5.1 78 1.7 WSW 33 46 18 25 1019.8 1019.2 0.0
08/05:14pm 8.9 2.1 5.1 77 1.8 WSW 30 48 16 26 1019.2 1018.7 0.0
08/05:00pm 9.1 2.3 5.1 76 1.9 WSW 30 43 16 23 1019.3 1018.8 0.0
08/04:30pm 9.8 3.4 5.0 72 2.3 WSW 28 39 15 21 1019.0 1018.4 0.0
08/04:00pm 10.0 2.7 4.4 68 2.6 WSW 32 52 17 28 1018.7 1018.1 0.0
08/03:43pm 9.9 3.0 4.7 70 2.4 WSW 30 50 16 27 1018.6 1018.0 0.0
08/03:30pm 9.9 2.0 4.5 69 2.5 WSW 35 50 19 27 1018.4 1017.8 0.0
08/03:07pm 10.4 3.0 4.8 68 2.6 WSW 33 54 18 29 1018.1 1017.6 0.0
08/03:00pm 10.4 2.5 4.5 67 2.8 WSW 35 54 19 29 1017.9 1017.3 0.0
08/02:30pm 11.0 1.6 4.2 63 3.2 WSW 43 59 23 32 1017.4 1016.8 0.0
08/02:18pm 11.2 3.7 4.2 62 3.3 WSW 33 54 18 29 1017.2 1016.6 0.0
08/02:00pm 11.2 4.2 4.0 61 3.4 WSW 30 46 16 25 1017.4 1016.8 0.0
08/01:30pm 11.8 3.5 4.3 60 3.5 W 37 57 20 31 1016.9 1016.3 0.0
08/01:00pm 11.5 2.5 4.5 62 3.3 WSW 41 61 22 33 1016.9 1016.3 0.0
08/12:47pm 11.3 3.4 4.3 62 3.3 W 35 56 19 30 1017.1 1016.5 0.0
08/12:30pm 11.4 3.2 4.6 63 3.2 W 37 48 20 26 1017.5 1016.9 0.0
08/12:00pm 11.4 3.1 4.4 62 3.3 WSW 37 59 20 32 1017.8 1017.2 0.0
08/11:30am 10.3 2.0 4.0 65 2.9 WSW 37 65 20 35 1017.8 1017.2 0.0
08/11:00am 9.4 -0.2 3.6 67 2.6 WSW 43 72 23 39 1018.2 1017.7 0.0
08/10:30am 9.0 -0.8 3.2 67 2.6 WSW 44 69 24 37 1017.9 1017.3 0.0
08/10:00am 8.7 -1.4 3.5 70 2.4 WSW 46 74 25 40 1017.4 1016.8 0.0
08/09:30am 7.9 -2.6 3.4 73 2.0 W 48 70 26 38 1017.2 1016.6 0.0
08/09:03am 7.3 -3.3 3.0 74 1.9 W 48 67 26 36 1017.2 1016.6 0.0
08/09:00am 7.3 -3.3 3.0 74 1.9 W 48 65 26 35 1017.2 1016.6 0.0
08/08:30am 6.6 -4.0 2.9 77 1.6 WSW 48 80 26 43 1017.5 1016.9 0.0
08/08:17am 6.3 -3.4 2.8 78 1.5 WSW 43 63 23 34 1017.4 1016.8 0.0
08/08:00am 6.0 -3.4 2.6 79 1.5 W 41 54 22 29 1017.5 1016.9 0.0
08/07:39am 5.3 -4.1 2.5 82 1.2 W 41 59 22 32 1017.4 1016.8 0.0
08/07:30am 5.2 -4.8 2.4 82 1.2 W 44 59 24 32 1017.2 1016.6 0.0
08/07:08am 4.9 -6.3 2.1 82 1.2 W 50 70 27 38 1016.9 1016.3 0.0
08/07:00am 4.9 -6.6 2.1 82 1.2 W 52 67 28 36 1016.7 1016.1 0.0
08/06:52am 4.9 -5.8 2.3 83 1.1 W 48 67 26 36 1016.5 1015.9 0.0
08/06:30am 4.5 -5.3 2.0 84 1.1 W 43 54 23 29 1016.8 1016.2 0.0
08/06:00am 4.5 -5.9 1.9 83 1.1 W 46 65 25 35 1016.8 1016.2 0.0
08/05:30am 4.1 -5.1 1.5 83 1.1 W 39 63 21 34 1017.1 1016.5 0.0
08/05:22am 4.2 -5.3 1.6 83 1.1 W 41 63 22 34 1016.9 1016.3 0.0
08/05:00am 4.2 -5.9 1.6 83 1.1 W 44 61 24 33 1016.6 1016.0 0.0
08/04:30am 4.2 -5.4 1.2 81 1.2 W 41 63 22 34 1016.9 1016.3 0.0
08/04:00am 4.1 -5.2 0.8 79 1.3 W 39 52 21 28 1017.1 1016.5 0.0
08/03:30am 4.2 -3.9 0.7 78 1.4 W 33 54 18 29 1017.1 1016.5 0.0
08/03:28am 3.9 -4.3 0.6 79 1.3 W 33 54 18 29 1017.2 1016.6 0.0
08/03:00am 4.0 -5.7 0.5 78 1.4 W 41 54 22 29 1017.3 1016.7 0.0
08/02:30am 3.8 -5.1 0.5 79 1.3 W 37 52 20 28 1017.5 1016.9 0.0
08/02:02am 3.7 -4.9 0.4 79 1.3 W 35 56 19 30 1017.7 1017.1 0.0
08/02:00am 3.6 -5.0 0.3 79 1.3 W 35 48 19 26 1017.8 1017.2 0.0
08/01:30am 3.8 -4.4 0.5 79 1.3 W 33 48 18 26 1017.8 1017.2 0.0
08/01:04am 3.6 -5.0 0.1 78 1.4 WSW 35 56 19 30 1018.2 1017.7 0.0
08/01:00am 3.8 -5.2 0.1 77 1.5 WSW 37 56 20 30 1018.2 1017.7 0.0
08/12:38am 3.7 -6.5 -0.1 76 1.5 WSW 43 61 23 33 1018.4 1017.8 0.0
08/12:30am 3.7 -6.5 -0.1 76 1.5 WSW 43 59 23 32 1018.1 1017.6 0.0
08/12:00am 3.3 -6.1 -0.2 78 1.4 WSW 39 61 21 33 1018.5 1017.9 0.0
 
Date/Time
EST
Temp
°C
App
Temp
°C
Dew
Point
°C
Rel
Hum
%
Delta-T
°C
Wind Press
QNH
hPa
Press
MSL
hPa
Rain since
9am
mm
Dir  Spd
km/h
Gust
km/h
Spd
kts
Gust
kts
07/11:30pm 3.0 -7.2 -0.6 77 1.4 WSW 43 63 23 34 1018.4 1017.8 0.0
07/11:09pm 2.9 -6.3 -1.1 75 1.5 WSW 37 56 20 30 1018.5 1017.9 0.0
07/11:00pm 3.0 -6.6 -1.2 74 1.6 WSW 39 56 21 30 1018.4 1017.8 0.0
07/10:38pm 3.1 -5.1 -1.3 73 1.7 WSW 32 50 17 27 1018.2 1017.7 0.0
07/10:30pm 3.0 -4.9 -1.2 74 1.6 WSW 30 46 16 25 1018.5 1017.9 0.0
07/10:00pm 3.2 -4.7 -1.3 72 1.7 WSW 30 57 16 31 1018.8 1018.2 0.0
07/09:30pm 3.4 -5.8 -1.3 71 1.8 WSW 37 56 20 30 1018.6 1018.0 0.0
07/09:11pm 3.4 -6.2 -1.3 71 1.8 WSW 39 57 21 31 1018.1 1017.6 0.0
07/09:00pm 3.6 -6.7 -1.2 71 1.8 WSW 43 59 23 32 1017.8 1017.2 0.0
07/08:30pm 3.7 -5.1 -1.3 70 1.9 WSW 35 59 19 32 1017.9 1017.3 0.0
07/08:12pm 3.6 -6.4 -1.5 69 1.9 WSW 41 61 22 33 1017.9 1017.3 0.0
07/08:00pm 3.9 -7.0 -1.5 68 2.1 WSW 46 61 25 33 1017.8 1017.2 0.0
07/07:31pm 3.8 -5.0 -1.5 68 2.0 WSW 35 56 19 30 1018.0 1017.4 0.0
07/07:30pm 3.7 -5.2 -1.6 68 2.0 WSW 35 52 19 28 1018.1 1017.6 0.0
07/07:19pm 3.9 -5.4 -1.9 66 2.2 WSW 37 56 20 30 1018.0 1017.4 0.0
07/07:00pm 4.1 -6.0 -2.1 64 2.3 WSW 41 59 22 32 1017.9 1017.3 0.0
07/06:40pm 4.2 -4.3 -2.0 64 2.3 WSW 33 52 18 28 1017.7 1017.1 0.0
07/06:30pm 3.8 -4.6 -2.2 65 2.2 WSW 32 48 17 26 1017.8 1017.2 0.0
07/06:20pm 4.3 -4.6 -2.1 63 2.4 W 35 56 19 30 1017.6 1017.0 0.0
07/06:00pm 4.3 -4.1 -2.3 62 2.5 WSW 32 48 17 26 1017.2 1016.6 0.0
07/05:52pm 4.6 -3.8 -2.3 61 2.6 WSW 32 50 17 27 1017.1 1016.5 0.0
07/05:30pm 4.7 -3.9 -2.4 60 2.7 W 33 48 18 26 1016.5 1015.9 0.0
07/05:00pm 5.3 -3.7 -2.5 57 3.0 W 35 48 19 26 1016.1 1015.5 0.0
07/04:30pm 6.1 -1.9 -2.5 54 3.3 WSW 30 48 16 26 1016.2 1015.6 0.0
07/04:17pm 6.3 -3.5 -2.8 52 3.5 W 39 57 21 31 1016.0 1015.4 0.0
07/04:00pm 6.5 -4.9 -2.4 53 3.4 W 48 65 26 35 1015.5 1014.9 0.0
07/03:34pm 6.7 -2.3 -2.7 51 3.6 W 35 56 19 30 1015.7 1015.0 0.0
07/03:30pm 7.4 -1.9 -2.1 51 3.7 W 37 52 20 28 1015.7 1015.0 0.0
07/03:00pm 6.5 -2.1 -2.4 53 3.4 WSW 33 57 18 31 1015.4 1014.8 0.0
07/02:31pm 6.3 -2.7 -2.8 52 3.5 WSW 35 56 19 30 1015.2 1014.6 0.0
07/02:30pm 6.4 -2.2 -2.7 52 3.5 WSW 33 48 18 26 1015.2 1014.6 0.0
07/02:00pm 6.8 -2.2 -2.9 50 3.7 WSW 35 54 19 29 1014.7 1014.0 0.0
07/01:31pm 7.5 -2.6 -2.5 49 3.9 WSW 41 61 22 33 1014.5 1013.8 0.0
07/01:30pm 7.3 -3.2 -2.7 49 3.9 WSW 43 61 23 33 1014.4 1013.7 0.0
07/01:00pm 7.2 -3.4 -3.3 47 4.0 WSW 43 65 23 35 1014.4 1013.7 0.0
07/12:30pm 8.3 -0.7 -2.9 45 4.3 SW 35 56 19 30 1014.2 1013.6 0.0
07/12:16pm 8.6 0.2 -2.1 47 4.2 SW 32 52 17 28 1014.1 1013.5 0.0
07/12:00pm 7.9 -1.5 -2.7 47 4.1 WSW 37 50 20 27 1014.5 1013.8 0.0
07/11:38am 7.7 -0.8 -3.2 46 4.2 WSW 32 52 17 28 1014.6 1013.9 0.0
07/11:30am 8.5 1.3 -2.4 46 4.3 WSW 26 39 14 21 1014.7 1014.0 0.0
07/11:00am 7.1 -2.9 -4.6 43 4.3 WSW 39 69 21 37 1014.6 1013.9 0.0
07/10:30am 7.3 -2.0 -5.1 41 4.5 WSW 35 57 19 31 1014.7 1014.0 0.0
07/10:05am 7.3 -1.9 -4.7 42 4.4 WSW 35 54 19 29 1014.5 1013.8 0.0
07/10:00am 7.5 -1.6 -3.6 45 4.2 WSW 35 46 19 25 1014.6 1013.9 0.0
07/09:30am 6.1 -3.5 -1.5 58 3.0 WSW 39 61 21 33 1014.4 1013.7 0.0
07/09:00am 6.1 -1.2 2.4 77 1.6 SW 30 56 16 30 1014.5 1013.8 0.0
07/08:35am 7.6 0.3 4.7 82 1.3 WSW 32 56 17 30 1013.7 1013.0 0.0
07/08:30am 7.7 1.3 5.2 84 1.2 WSW 28 41 15 22 1013.6 1012.9 0.0
07/08:10am 7.5 1.1 5.3 86 1.0 W 28 46 15 25 1013.3 1012.6 0.0
07/08:00am 7.5 0.8 5.5 87 0.9 W 30 43 16 23 1013.3 1012.6 0.0
07/07:30am 7.3 0.6 5.4 88 0.9 W 30 44 16 24 1013.4 1012.7 0.0
07/07:00am 7.6 0.3 4.7 82 1.3 W 32 43 17 23 1013.2 1012.5 0.0
07/06:30am 7.4 1.6 4.4 81 1.4 W 24 39 13 21 1013.3 1012.6 0.0
07/06:00am 7.1 -0.4 3.7 79 1.5 W 32 48 17 26 1013.3 1012.6 0.0
07/05:30am 7.2 -2.0 3.3 76 1.7 W 41 54 22 29 1013.2 1012.5 0.0
07/05:00am 7.0 -1.5 3.1 76 1.7 W 37 48 20 26 1013.1 1012.4 0.0
07/04:30am 6.8 -2.5 2.7 75 1.8 W 41 57 22 31 1013.1 1012.4 0.0
07/04:00am 6.6 -2.7 2.9 77 1.6 W 41 65 22 35 1013.6 1012.9 0.0
07/03:39am 6.6 -2.7 2.9 77 1.6 W 41 61 22 33 1013.6 1012.9 0.0
07/03:30am 6.5 -2.4 2.8 77 1.6 W 39 52 21 28 1014.0 1013.4 0.0
07/03:00am 6.3 -2.2 2.9 79 1.5 W 37 52 20 28 1014.2 1013.6 0.0
07/02:30am 6.5 -2.4 3.3 80 1.4 W 39 54 21 29 1014.8 1014.1 0.0
07/02:00am 6.9 -1.8 3.9 81 1.4 W 39 48 21 26 1014.8 1014.1 0.0
07/01:30am 7.1 -1.2 4.2 82 1.3 W 37 48 20 26 1015.1 1014.5 0.0
07/01:00am 7.3 -0.6 4.6 83 1.2 W 35 46 19 25 1015.4 1014.8 0.0
07/12:30am 7.5 -0.3 4.8 83 1.2 W 35 46 19 25 1015.8 1015.1 0.0
07/12:00am 7.8 0.5 5.3 84 1.2 W 33 39 18 21 1015.9 1015.2 0.0
 
Date/Time
EST
Temp
°C
App
Temp
°C
Dew
Point
°C
Rel
Hum
%
Delta-T
°C
Wind Press
QNH
hPa
Press
MSL
hPa
Rain since
9am
mm
Dir  Spd
km/h
Gust
km/h
Spd
kts
Gust
kts
06/11:30pm 8.2 1.0 5.7 84 1.2 W 33 44 18 24 1015.9 1015.2 0.0
06/11:00pm 8.7 1.5 6.0 83 1.3 W 33 43 18 23 1016.0 1015.4 0.0
06/10:30pm 9.1 2.5 6.0 81 1.5 W 30 37 16 20 1016.4 1015.8 0.0
06/10:00pm 9.5 3.3 6.0 79 1.7 W 28 33 15 18 1016.8 1016.2 0.0
06/09:30pm 9.8 4.3 6.0 77 1.8 W 24 32 13 17 1017.2 1016.6 0.0
06/09:00pm 10.3 5.1 5.7 73 2.2 W 22 28 12 15 1017.5 1016.9 0.0
06/08:30pm 10.5 5.9 5.5 71 2.4 W 19 26 10 14 1017.6 1017.0 0.0
06/08:00pm 10.8 6.5 5.1 68 2.7 W 17 22 9 12 1017.8 1017.2 0.0
06/07:30pm 11.2 7.3 5.3 67 2.8 W 15 19 8 10 1017.9 1017.3 0.0
06/07:00pm 12.5 8.4 6.1 65 3.2 W 17 20 9 11 1018.0 1017.4 0.0
06/06:30pm 13.1 11.2 9.0 76 2.2 NW 9 11 5 6 1017.9 1017.3 0.0

Other formats

Comma delimited format used in spreadsheet applications
http://www.bom.gov.au/fwo/IDN60801/IDN60801.99742.axf

JavaScript Object Notation format (JSON) in row-major order
http://www.bom.gov.au/fwo/IDN60801/IDN60801.99742.json

Data quality

Most of these data are generated automatically and are frequently updated. Quality checks on data are not normally performed. It is possible for incorrect values to appear. Refer to information at About Latest Weather Observations and please check the disclaimer before using these data.